createdAt,value
2023-01-20T00:00:33.809Z,1.97
2023-01-20T00:03:01.484Z,2.00
2023-01-20T00:05:29.122Z,1.60
2023-01-20T00:07:56.822Z,2.10
2023-01-20T00:10:24.513Z,1.83
2023-01-20T00:12:53.552Z,1.70
2023-01-20T00:15:21.267Z,1.73
2023-01-20T00:17:48.919Z,1.90
2023-01-20T00:20:16.740Z,1.73
2023-01-20T00:22:44.405Z,1.60
2023-01-20T00:25:12.472Z,1.67
2023-01-20T00:27:40.249Z,1.87
2023-01-20T00:30:10.858Z,1.80
2023-01-20T00:32:39.381Z,1.60
2023-01-20T00:35:08.246Z,1.53
2023-01-20T00:37:35.940Z,1.70
2023-01-20T00:40:03.662Z,1.43
2023-01-20T00:42:31.365Z,1.47
2023-01-20T00:44:59.113Z,1.53
2023-01-20T00:47:28.120Z,1.53
2023-01-20T00:49:55.803Z,1.50
2023-01-20T00:52:23.503Z,1.33
2023-01-20T00:54:51.279Z,1.27
2023-01-20T00:57:18.955Z,1.40
2023-01-20T00:59:46.721Z,1.50
2023-01-20T01:02:14.543Z,1.50
2023-01-20T01:04:43.729Z,1.33
2023-01-20T01:07:11.443Z,1.20
2023-01-20T01:09:39.165Z,1.20
2023-01-20T01:12:07.121Z,1.67
2023-01-20T01:14:34.835Z,1.60
2023-01-20T01:17:02.485Z,1.50
2023-01-20T01:19:30.148Z,1.50
2023-01-20T01:21:59.168Z,1.37
2023-01-20T01:24:26.838Z,1.20
2023-01-20T01:26:55.141Z,1.60
2023-01-20T01:29:22.816Z,1.30
2023-01-20T01:31:52.920Z,1.50
2023-01-20T01:34:20.647Z,1.63
2023-01-20T01:36:48.337Z,1.50
2023-01-20T01:39:17.453Z,1.60
2023-01-20T01:41:45.155Z,1.90
2023-01-20T01:44:14.346Z,1.70
2023-01-20T01:46:42.615Z,1.80
2023-01-20T01:49:13.956Z,1.80
2023-01-20T01:51:45.708Z,2.03
2023-01-20T01:54:15.049Z,1.80
2023-01-20T01:56:44.921Z,2.00
2023-01-20T01:59:14.590Z,1.80
2023-01-20T02:01:44.809Z,2.10
2023-01-20T02:04:14.930Z,1.80
2023-01-20T02:06:44.105Z,1.70
2023-01-20T02:09:11.969Z,1.87
2023-01-20T02:11:41.605Z,1.70
2023-01-20T02:14:10.703Z,1.80
2023-01-20T02:16:46.022Z,1.70
2023-01-20T02:19:43.283Z,1.60
2023-01-20T02:22:18.038Z,1.93
2023-01-20T02:25:19.554Z,1.80
2023-01-20T02:28:37.813Z,1.67
2023-01-20T02:31:22.846Z,1.80
2023-01-20T02:33:55.009Z,1.70
2023-01-20T02:36:28.683Z,2.20
2023-01-20T02:39:00.991Z,1.87
2023-01-20T02:41:36.697Z,2.13
2023-01-20T02:44:09.887Z,2.03
2023-01-20T02:46:40.010Z,2.03
2023-01-20T02:49:11.619Z,2.20
2023-01-20T02:51:41.936Z,2.07
2023-01-20T02:54:12.009Z,2.33
2023-01-20T02:56:39.926Z,1.80
2023-01-20T02:59:10.155Z,1.83
2023-01-20T03:01:41.547Z,2.07
2023-01-20T03:04:12.853Z,2.43
2023-01-20T03:06:45.327Z,2.03
2023-01-20T03:09:18.376Z,2.30
2023-01-20T03:11:49.169Z,2.50
2023-01-20T03:14:17.079Z,2.00
2023-01-20T03:16:48.213Z,2.17
2023-01-20T03:19:20.418Z,1.90
2023-01-20T03:21:48.507Z,2.37
2023-01-20T03:24:16.431Z,1.97
2023-01-20T03:26:44.203Z,1.93
2023-01-20T03:29:12.673Z,1.77
2023-01-20T03:31:44.153Z,1.60
2023-01-20T03:34:13.981Z,1.43
2023-01-20T03:36:44.365Z,1.70
2023-01-20T03:39:12.244Z,1.57
2023-01-20T03:41:48.640Z,1.70
2023-01-20T03:44:22.186Z,1.50
2023-01-20T03:46:54.355Z,1.67
2023-01-20T03:49:29.562Z,1.47
2023-01-20T03:52:02.907Z,1.50
2023-01-20T03:54:36.041Z,1.57
2023-01-20T03:57:07.775Z,1.67
2023-01-20T03:59:37.029Z,1.80
2023-01-20T04:02:07.204Z,1.73
2023-01-20T04:04:36.285Z,1.90
2023-01-20T04:07:07.254Z,1.90
2023-01-20T04:09:37.811Z,1.90
2023-01-20T04:12:05.619Z,1.70
2023-01-20T04:14:33.396Z,1.80
2023-01-20T04:17:01.140Z,1.70
2023-01-20T04:19:28.913Z,1.70
2023-01-20T04:22:00.831Z,1.80
2023-01-20T04:24:33.121Z,1.60
2023-01-20T04:27:00.844Z,1.37
2023-01-20T04:29:28.512Z,1.40
2023-01-20T04:32:00.233Z,1.60
2023-01-20T04:34:28.157Z,1.90
2023-01-20T04:36:55.829Z,1.60
2023-01-20T04:39:23.543Z,1.47
2023-01-20T04:41:52.533Z,1.67
2023-01-20T04:44:20.237Z,1.70
2023-01-20T04:46:48.132Z,1.70
2023-01-20T04:49:15.918Z,1.40
2023-01-20T04:51:43.773Z,1.70
2023-01-20T04:54:12.447Z,1.30
2023-01-20T04:56:40.114Z,1.63
2023-01-20T04:59:09.194Z,1.37
2023-01-20T05:01:36.937Z,1.40
2023-01-20T05:04:04.734Z,1.37
2023-01-20T05:06:32.509Z,1.50
2023-01-20T05:09:00.174Z,1.40
2023-01-20T05:11:27.866Z,1.57
2023-01-20T05:13:55.539Z,1.53
2023-01-20T05:16:26.041Z,1.50
2023-01-20T05:18:53.742Z,1.50
2023-01-20T05:21:21.501Z,1.77
2023-01-20T05:23:49.228Z,1.60
2023-01-20T05:26:16.981Z,1.70
2023-01-20T05:28:46.522Z,1.83
2023-01-20T05:31:14.328Z,1.87
2023-01-20T05:33:43.513Z,1.50
2023-01-20T05:36:12.191Z,1.53
2023-01-20T05:38:39.919Z,1.40
2023-01-20T05:41:09.239Z,1.60
2023-01-20T05:43:37.240Z,1.67
2023-01-20T05:46:05.693Z,1.60
2023-01-20T05:48:33.673Z,1.60
2023-01-20T05:51:02.757Z,1.50
2023-01-20T05:56:17.531Z,1.73
2023-01-20T05:58:45.235Z,1.53
2023-01-20T06:01:14.700Z,1.60
2023-01-20T06:03:42.741Z,1.50
2023-01-20T06:06:14.282Z,1.30
2023-01-20T06:08:42.272Z,1.70
2023-01-20T06:11:10.023Z,1.53
2023-01-20T06:13:39.563Z,1.50
2023-01-20T06:16:07.679Z,1.63
2023-01-20T06:18:35.822Z,1.73
2023-01-20T06:21:03.561Z,1.40
2023-01-20T06:23:32.597Z,1.77
2023-01-20T06:26:01.785Z,1.80
2023-01-20T06:28:30.032Z,2.00
2023-01-20T06:31:02.142Z,2.20
2023-01-20T06:33:30.040Z,2.30
2023-01-20T06:35:58.195Z,2.07
2023-01-20T06:38:27.056Z,1.77
2023-01-20T06:40:59.152Z,2.17
2023-01-20T06:43:26.903Z,1.83
2023-01-20T06:45:54.567Z,1.70
2023-01-20T06:48:22.355Z,1.90
2023-01-20T06:50:50.047Z,2.13
2023-01-20T06:53:17.708Z,2.37
2023-01-20T06:55:45.382Z,2.47
2023-01-20T06:58:14.411Z,2.73
2023-01-20T07:00:42.123Z,3.00
2023-01-20T07:03:09.822Z,3.40
2023-01-20T07:05:37.532Z,4.07
2023-01-20T07:08:05.617Z,3.53
2023-01-20T07:10:33.266Z,3.00
2023-01-20T07:13:00.906Z,3.23
2023-01-20T07:15:29.987Z,2.93
2023-01-20T07:17:57.663Z,2.87
2023-01-20T07:20:25.316Z,2.90
2023-01-20T07:22:53.031Z,2.80
2023-01-20T07:25:21.018Z,2.53
2023-01-20T07:27:48.721Z,2.80
2023-01-20T07:30:17.232Z,3.30
2023-01-20T07:32:46.288Z,3.23
2023-01-20T07:35:14.324Z,3.50
2023-01-20T07:37:42.209Z,3.47
2023-01-20T07:40:11.289Z,3.17
2023-01-20T07:42:39.149Z,3.43
2023-01-20T07:45:08.079Z,3.63
2023-01-20T07:47:35.785Z,3.57
2023-01-20T07:50:05.470Z,3.50
2023-01-20T07:52:33.160Z,2.93
2023-01-20T07:55:00.870Z,2.80
2023-01-20T07:57:30.129Z,2.93
2023-01-20T07:59:57.943Z,2.80
2023-01-20T08:02:25.670Z,3.00
2023-01-20T08:04:53.337Z,3.10
2023-01-20T08:07:22.410Z,2.70
2023-01-20T08:09:50.269Z,3.20
2023-01-20T08:12:18.021Z,3.30
2023-01-20T08:14:46.413Z,3.10
2023-01-20T08:17:14.085Z,2.90
2023-01-20T08:19:42.828Z,2.93
2023-01-20T08:22:10.484Z,3.20
2023-01-20T08:24:39.511Z,3.00
2023-01-20T08:27:07.221Z,2.93
2023-01-20T08:29:34.965Z,2.97
2023-01-20T08:32:02.720Z,2.70
2023-01-20T08:34:30.433Z,2.83
2023-01-20T08:36:58.125Z,2.90
2023-01-20T08:39:25.865Z,2.40
2023-01-20T08:41:54.982Z,2.77
2023-01-20T08:44:22.689Z,2.80
2023-01-20T08:46:52.629Z,2.30
2023-01-20T08:49:21.867Z,2.40
2023-01-20T08:51:50.331Z,2.30
2023-01-20T08:54:19.895Z,2.50
2023-01-20T08:56:50.852Z,2.30
2023-01-20T08:59:20.498Z,2.50
2023-01-20T09:01:48.150Z,2.87
2023-01-20T09:04:15.921Z,2.83
2023-01-20T09:06:45.310Z,2.70
2023-01-20T09:09:14.273Z,2.73
2023-01-20T09:11:44.765Z,2.30
2023-01-20T09:14:12.639Z,2.70
2023-01-20T09:16:41.715Z,2.87
2023-01-20T09:19:09.371Z,3.00
2023-01-20T09:21:37.105Z,2.60
2023-01-20T09:24:05.361Z,3.07
2023-01-20T09:26:38.449Z,2.40
2023-01-20T09:29:10.321Z,3.10
2023-01-20T09:31:38.733Z,3.33
2023-01-20T09:34:08.992Z,3.30
2023-01-20T09:36:36.746Z,2.90
2023-01-20T09:39:22.404Z,2.83
2023-01-20T09:42:08.009Z,2.60
2023-01-20T09:44:47.429Z,2.50
2023-01-20T09:47:26.145Z,2.37
2023-01-20T09:50:31.579Z,2.60
2023-01-20T09:53:08.121Z,2.30
2023-01-20T09:55:42.059Z,2.10
2023-01-20T09:58:15.996Z,2.30
2023-01-20T10:00:47.959Z,2.43
2023-01-20T10:03:21.137Z,2.40
2023-01-20T10:05:51.597Z,2.10
2023-01-20T10:08:22.733Z,2.10
2023-01-20T10:10:53.097Z,2.00
2023-01-20T10:13:23.380Z,2.00
2023-01-20T10:15:54.222Z,1.80
2023-01-20T10:18:26.596Z,1.77
2023-01-20T10:21:00.995Z,1.70
2023-01-20T10:23:31.490Z,2.10
2023-01-20T10:26:06.225Z,2.07
2023-01-20T10:28:38.795Z,2.33
2023-01-20T10:31:07.143Z,1.93
2023-01-20T10:33:38.391Z,2.20
2023-01-20T10:36:12.018Z,2.13
2023-01-20T10:38:44.498Z,2.30
2023-01-20T10:41:18.650Z,1.90
2023-01-20T10:43:47.399Z,1.90
2023-01-20T10:46:26.838Z,1.90
2023-01-20T10:49:12.101Z,2.00
2023-01-20T10:51:47.241Z,2.07
2023-01-20T10:54:20.091Z,2.07
2023-01-20T10:56:53.368Z,2.00
2023-01-20T10:59:28.394Z,1.80
2023-01-20T11:02:10.891Z,1.67
2023-01-20T11:04:39.536Z,1.60
2023-01-20T11:07:14.537Z,1.43
2023-01-20T11:09:44.897Z,1.70
2023-01-20T11:12:16.972Z,1.67
2023-01-20T11:14:45.455Z,1.97
2023-01-20T11:17:15.802Z,1.97
2023-01-20T11:19:51.613Z,1.80
2023-01-20T11:22:27.391Z,2.00
2023-01-20T11:24:56.138Z,1.40
2023-01-20T11:27:27.094Z,1.50
2023-01-20T11:29:58.467Z,1.70
2023-01-20T11:32:31.526Z,1.50
2023-01-20T11:34:59.867Z,1.53
2023-01-20T11:37:36.877Z,1.57
2023-01-20T11:40:19.191Z,1.30
2023-01-20T11:42:48.500Z,1.30
2023-01-20T11:45:28.543Z,1.40
2023-01-20T11:48:17.566Z,1.30
2023-01-20T11:50:50.023Z,1.20
2023-01-20T11:53:25.292Z,1.60
2023-01-20T11:55:55.560Z,1.70
2023-01-20T11:58:25.480Z,1.83
2023-01-20T12:01:00.709Z,1.70
2023-01-20T12:03:55.261Z,1.93
2023-01-20T12:06:26.118Z,1.87
2023-01-20T12:08:58.004Z,1.60
2023-01-20T12:11:29.750Z,1.70
2023-01-20T12:14:23.295Z,1.97
2023-01-20T12:17:26.629Z,1.67
2023-01-20T12:20:07.214Z,1.70
2023-01-20T12:22:42.581Z,1.53
2023-01-20T12:25:19.937Z,1.40
2023-01-20T12:27:52.930Z,1.30
2023-01-20T12:30:40.582Z,1.60
2023-01-20T12:33:16.761Z,1.40
2023-01-20T12:36:05.099Z,1.50
2023-01-20T12:38:37.879Z,1.30
2023-01-20T12:41:09.103Z,1.30
2023-01-20T12:43:52.939Z,1.20
2023-01-20T12:46:39.343Z,1.20
2023-01-20T12:49:35.543Z,1.40
2023-01-20T12:52:13.087Z,1.10
2023-01-20T12:54:52.251Z,1.20
2023-01-20T12:57:30.965Z,1.20
2023-01-20T13:00:12.282Z,1.10
2023-01-20T13:02:53.835Z,1.23
2023-01-20T13:05:40.401Z,1.50
2023-01-20T13:08:16.043Z,1.00
2023-01-20T13:10:51.319Z,1.30
2023-01-20T13:13:32.732Z,1.20
2023-01-20T13:16:05.895Z,0.93
2023-01-20T13:18:39.085Z,1.23
2023-01-20T13:21:06.847Z,1.30
2023-01-20T13:23:36.058Z,1.30
2023-01-20T13:26:05.132Z,1.10
2023-01-20T13:28:34.227Z,1.40
2023-01-20T13:31:03.108Z,1.43
2023-01-20T13:33:36.814Z,1.37
2023-01-20T13:36:16.165Z,1.40
2023-01-20T13:38:44.311Z,1.30
2023-01-20T13:41:12.283Z,1.30
2023-01-20T13:43:59.236Z,1.00
2023-01-20T13:46:45.900Z,1.20
2023-01-20T13:49:16.290Z,1.30
2023-01-20T13:51:46.082Z,1.00
2023-01-20T13:57:44.374Z,1.20
2023-01-20T14:00:19.214Z,0.93
2023-01-20T14:02:48.684Z,0.90
2023-01-20T14:05:31.698Z,1.07
2023-01-20T14:07:59.720Z,1.00
2023-01-20T14:10:29.051Z,1.13
2023-01-20T14:12:56.828Z,1.37
2023-01-20T14:15:37.508Z,1.00
2023-01-20T14:18:06.171Z,1.23
2023-01-20T14:20:33.855Z,1.10
2023-01-20T14:23:25.216Z,1.20
2023-01-20T14:26:17.336Z,1.20
2023-01-20T14:28:47.516Z,1.27
2023-01-20T14:31:33.110Z,1.33
2023-01-20T14:34:03.188Z,1.13
2023-01-20T14:36:32.531Z,1.00
2023-01-20T14:39:03.868Z,1.10
2023-01-20T14:41:34.677Z,1.47
2023-01-20T14:44:05.857Z,1.20
2023-01-20T14:46:36.164Z,1.27
2023-01-20T14:49:04.901Z,1.20
2023-01-20T14:51:34.100Z,1.10
2023-01-20T14:57:27.700Z,1.40
2023-01-20T15:00:16.491Z,1.30
2023-01-20T15:03:01.384Z,1.20
2023-01-20T15:05:38.684Z,1.20
2023-01-20T15:08:26.000Z,1.30
2023-01-20T15:11:18.508Z,1.50
2023-01-20T15:14:08.512Z,1.60
2023-01-20T15:16:49.286Z,1.47
2023-01-20T15:19:32.118Z,1.80
2023-01-20T15:22:22.480Z,1.87
2023-01-20T15:24:50.623Z,2.10
2023-01-20T15:27:25.051Z,1.63
2023-01-20T15:30:15.800Z,1.70
2023-01-20T15:32:43.851Z,1.60
2023-01-20T15:35:17.016Z,1.33
2023-01-20T15:37:45.210Z,1.57
2023-01-20T15:40:18.721Z,1.57
2023-01-20T15:42:46.913Z,1.57
2023-01-20T15:45:15.694Z,1.60
2023-01-20T15:47:43.885Z,1.67
2023-01-20T15:50:22.541Z,2.00
2023-01-20T15:52:50.417Z,1.90
2023-01-20T15:55:19.313Z,1.70
2023-01-20T15:57:51.208Z,1.70
2023-01-20T16:00:20.024Z,1.83
2023-01-20T16:02:48.071Z,1.70
2023-01-20T16:05:17.682Z,1.87
2023-01-20T16:07:49.481Z,2.17
2023-01-20T16:10:20.637Z,2.20
2023-01-20T16:12:48.764Z,2.27
2023-01-20T16:15:17.949Z,2.50
2023-01-20T16:17:46.245Z,2.43
2023-01-20T16:20:22.793Z,3.10
2023-01-20T16:22:51.966Z,2.97
2023-01-20T16:25:20.153Z,2.73
2023-01-20T16:27:47.885Z,3.27
2023-01-20T16:30:17.283Z,3.10
2023-01-20T16:32:46.310Z,3.13
2023-01-20T16:35:14.697Z,3.27
2023-01-20T16:37:42.885Z,3.50
2023-01-20T16:40:14.818Z,3.17
2023-01-20T16:42:42.942Z,3.10
2023-01-20T16:45:22.573Z,3.20
2023-01-20T16:47:50.334Z,3.17
2023-01-20T16:50:18.597Z,3.20
2023-01-20T16:52:46.436Z,2.97
2023-01-20T16:55:15.844Z,2.83
2023-01-20T16:57:44.186Z,3.40
2023-01-20T17:00:12.848Z,3.53
2023-01-20T17:02:40.632Z,3.40
2023-01-20T17:05:09.184Z,4.17
2023-01-20T17:07:36.956Z,4.20
2023-01-20T17:10:04.873Z,4.40
2023-01-20T17:12:34.013Z,4.53
2023-01-20T17:15:01.695Z,3.93
2023-01-20T17:17:29.433Z,4.10
2023-01-20T17:19:57.083Z,4.33
2023-01-20T17:22:25.058Z,3.87
2023-01-20T17:24:52.729Z,3.77
2023-01-20T17:27:20.569Z,4.07
2023-01-20T17:29:49.591Z,4.20
2023-01-20T17:32:18.107Z,4.30
2023-01-20T17:34:45.784Z,4.50
2023-01-20T17:37:13.597Z,4.70
2023-01-20T17:39:42.589Z,4.40
2023-01-20T17:42:10.564Z,4.87
2023-01-20T17:44:38.740Z,4.57
2023-01-20T17:47:07.785Z,5.13
2023-01-20T17:49:35.492Z,4.93
2023-01-20T17:52:03.167Z,4.53
2023-01-20T17:54:30.872Z,4.67
2023-01-20T17:56:58.656Z,4.47
2023-01-20T17:59:26.810Z,4.40
2023-01-20T18:01:55.352Z,5.20
2023-01-20T18:04:24.449Z,5.60
2023-01-20T18:06:52.191Z,5.63
2023-01-20T18:09:19.872Z,5.83
2023-01-20T18:11:47.663Z,5.93
2023-01-20T18:14:15.372Z,5.60
2023-01-20T18:16:43.089Z,9.13
2023-01-20T18:19:12.428Z,7.30
2023-01-20T18:21:43.245Z,6.93
2023-01-20T18:24:11.914Z,5.87
2023-01-20T18:26:42.470Z,5.53
2023-01-20T18:29:14.063Z,4.73
2023-01-20T18:31:41.977Z,4.77
2023-01-20T18:34:12.671Z,4.80
2023-01-20T18:36:44.853Z,4.50
2023-01-20T18:39:17.025Z,4.10
2023-01-20T18:41:44.720Z,4.60
2023-01-20T18:44:12.428Z,4.47
2023-01-20T18:46:40.281Z,4.30
2023-01-20T18:49:09.800Z,4.30
2023-01-20T18:51:37.646Z,4.50
2023-01-20T18:54:09.706Z,4.73
2023-01-20T18:56:37.656Z,4.63
2023-01-20T18:59:07.395Z,4.53
2023-01-20T19:01:36.933Z,4.13
2023-01-20T19:04:06.098Z,4.00
2023-01-20T19:06:36.833Z,4.03
2023-01-20T19:09:07.507Z,4.17
2023-01-20T19:11:39.323Z,3.93
2023-01-20T19:14:07.918Z,4.00
2023-01-20T19:16:37.891Z,4.03
2023-01-20T19:19:07.399Z,4.23
2023-01-20T19:21:36.566Z,5.00
2023-01-20T19:24:07.992Z,5.30
2023-01-20T19:26:39.020Z,5.27
2023-01-20T19:29:08.586Z,5.30
2023-01-20T19:31:38.660Z,5.00
2023-01-20T19:34:06.785Z,4.80
2023-01-20T19:36:35.207Z,5.63
2023-01-20T19:39:03.122Z,4.37
2023-01-20T19:41:33.728Z,4.50
2023-01-20T19:44:04.477Z,4.20
2023-01-20T19:46:34.449Z,4.83
2023-01-20T19:49:02.683Z,4.63
2023-01-20T19:51:31.731Z,4.07
2023-01-20T19:54:01.609Z,4.20
2023-01-20T19:56:30.900Z,3.73
2023-01-20T19:59:00.610Z,3.70
2023-01-20T20:01:32.001Z,3.10
2023-01-20T20:04:00.235Z,3.17
2023-01-20T20:06:32.392Z,3.40
2023-01-20T20:09:02.000Z,3.87
2023-01-20T20:11:30.721Z,4.30
2023-01-20T20:13:59.697Z,4.40
2023-01-20T20:16:31.066Z,4.00
2023-01-20T20:18:59.067Z,3.70
2023-01-20T20:21:27.630Z,3.53
2023-01-20T20:23:57.459Z,3.70
2023-01-20T20:26:27.114Z,3.57
2023-01-20T20:28:54.988Z,3.80
2023-01-20T20:31:28.876Z,3.17
2023-01-20T20:33:58.952Z,3.33
2023-01-20T20:36:28.365Z,3.40
2023-01-20T20:38:58.293Z,3.30
2023-01-20T20:41:28.790Z,3.07
2023-01-20T20:43:56.935Z,3.07
2023-01-20T20:46:24.891Z,3.07
2023-01-20T20:48:54.669Z,3.33
2023-01-20T20:51:24.478Z,3.20
2023-01-20T20:53:54.453Z,2.80
2023-01-20T20:56:22.297Z,2.67
2023-01-20T20:59:00.853Z,2.67
2023-01-20T21:01:31.475Z,2.40
2023-01-20T21:04:00.471Z,2.13
2023-01-20T21:06:30.193Z,2.30
2023-01-20T21:08:58.614Z,2.10
2023-01-20T21:11:26.459Z,1.80
2023-01-20T21:13:54.507Z,2.10
2023-01-20T21:16:23.489Z,2.30
2023-01-20T21:18:52.030Z,1.80
2023-01-20T21:21:20.304Z,2.13
2023-01-20T21:23:55.003Z,2.30
2023-01-20T21:26:23.830Z,2.03
2023-01-20T21:28:51.633Z,1.90
2023-01-20T21:31:21.873Z,1.77
2023-01-20T21:33:53.521Z,1.73
2023-01-20T21:36:21.785Z,1.80
2023-01-20T21:38:49.441Z,1.80
2023-01-20T21:41:19.141Z,1.73
2023-01-20T21:44:05.446Z,1.83
2023-01-20T21:46:37.197Z,1.80
2023-01-20T21:49:23.984Z,1.67
2023-01-20T21:52:09.366Z,1.87
2023-01-20T21:54:39.447Z,1.50
2023-01-20T21:57:08.692Z,2.20
2023-01-20T21:59:36.428Z,2.20
2023-01-20T22:02:04.222Z,2.10
2023-01-20T22:04:32.097Z,2.30
2023-01-20T22:06:59.740Z,2.50
2023-01-20T22:09:27.404Z,1.80
2023-01-20T22:11:55.108Z,1.97
2023-01-20T22:14:24.142Z,2.00
2023-01-20T22:16:51.847Z,1.40
2023-01-20T22:19:19.539Z,1.70
2023-01-20T22:21:47.218Z,1.60
2023-01-20T22:24:15.103Z,1.73
2023-01-20T22:26:42.856Z,1.50
2023-01-20T22:29:10.512Z,1.53
2023-01-20T22:31:39.647Z,1.50
2023-01-20T22:34:09.129Z,1.40
2023-01-20T22:36:37.822Z,1.37
2023-01-20T22:39:06.684Z,1.20
2023-01-20T22:41:34.732Z,1.40
2023-01-20T22:44:02.735Z,1.60
2023-01-20T22:46:30.438Z,1.10
2023-01-20T22:49:00.122Z,1.30
2023-01-20T22:51:29.518Z,1.33
2023-01-20T22:53:58.729Z,1.20
2023-01-20T22:56:28.207Z,1.20
2023-01-20T22:58:56.654Z,1.20
2023-01-20T23:01:26.051Z,1.50
2023-01-20T23:03:58.000Z,1.30
2023-01-20T23:06:28.660Z,1.23
2023-01-20T23:08:57.492Z,1.40
2023-01-20T23:11:25.251Z,1.50
2023-01-20T23:13:53.580Z,1.43
2023-01-20T23:16:23.289Z,1.30
2023-01-20T23:18:51.670Z,1.60
2023-01-20T23:21:19.964Z,1.60
2023-01-20T23:23:54.101Z,1.60
2023-01-20T23:26:23.104Z,1.53
2023-01-20T23:28:52.742Z,1.40
2023-01-20T23:31:21.486Z,1.20
2023-01-20T23:33:49.223Z,1.43
2023-01-20T23:36:19.750Z,1.57
2023-01-20T23:38:49.014Z,1.30
2023-01-20T23:41:17.317Z,1.30
2023-01-20T23:43:44.997Z,1.37
2023-01-20T23:46:12.777Z,1.00
2023-01-20T23:48:40.675Z,1.50
2023-01-20T23:51:08.505Z,1.20
2023-01-20T23:53:38.771Z,1.23
2023-01-20T23:56:11.898Z,1.00
2023-01-20T23:58:40.457Z,0.73
